sensor_id;sensor_type;location;lat;lon;timestamp;temperature;humidity
11944;DHT22;6031;50.220;10.122;2023-02-04T00:00:58;6.10;1.00
11944;DHT22;6031;50.220;10.122;2023-02-04T00:03:24;5.90;1.00
11944;DHT22;6031;50.220;10.122;2023-02-04T00:05:50;5.70;50.10
11944;DHT22;6031;50.220;10.122;2023-02-04T00:08:15;5.60;99.90
11944;DHT22;6031;50.220;10.122;2023-02-04T00:10:41;5.90;1.00
11944;DHT22;6031;50.220;10.122;2023-02-04T00:13:06;5.90;1.00
11944;DHT22;6031;50.220;10.122;2023-02-04T00:15:32;5.90;50.10
11944;DHT22;6031;50.220;10.122;2023-02-04T00:17:58;5.80;55.00
11944;DHT22;6031;50.220;10.122;2023-02-04T00:20:23;5.80;1.00
11944;DHT22;6031;50.220;10.122;2023-02-04T00:22:49;5.80;1.00
11944;DHT22;6031;50.220;10.122;2023-02-04T00:25:16;5.80;1.00
11944;DHT22;6031;50.220;10.122;2023-02-04T00:27:41;5.60;1.00
11944;DHT22;6031;50.220;10.122;2023-02-04T00:30:07;5.60;1.00
11944;DHT22;6031;50.220;10.122;2023-02-04T00:32:33;5.90;1.00
11944;DHT22;6031;50.220;10.122;2023-02-04T00:34:59;5.80;1.00
11944;DHT22;6031;50.220;10.122;2023-02-04T00:37:26;5.80;1.00
11944;DHT22;6031;50.220;10.122;2023-02-04T00:39:51;5.80;1.00
11944;DHT22;6031;50.220;10.122;2023-02-04T00:42:17;5.80;99.90
11944;DHT22;6031;50.220;10.122;2023-02-04T00:44:42;5.90;99.90
11944;DHT22;6031;50.220;10.122;2023-02-04T00:47:08;5.80;99.90
11944;DHT22;6031;50.220;10.122;2023-02-04T00:49:33;5.90;99.90
11944;DHT22;6031;50.220;10.122;2023-02-04T00:51:59;5.90;99.90
11944;DHT22;6031;50.220;10.122;2023-02-04T00:54:25;5.90;99.90
11944;DHT22;6031;50.220;10.122;2023-02-04T00:56:50;5.90;1.00
11944;DHT22;6031;50.220;10.122;2023-02-04T00:59:16;6.00;99.90
11944;DHT22;6031;50.220;10.122;2023-02-04T01:01:41;6.00;99.90
11944;DHT22;6031;50.220;10.122;2023-02-04T01:04:07;6.00;99.90
11944;DHT22;6031;50.220;10.122;2023-02-04T01:06:33;6.00;1.00
11944;DHT22;6031;50.220;10.122;2023-02-04T01:08:58;6.00;1.00
11944;DHT22;6031;50.220;10.122;2023-02-04T01:11:24;6.00;1.00
11944;DHT22;6031;50.220;10.122;2023-02-04T01:13:49;6.00;1.00
11944;DHT22;6031;50.220;10.122;2023-02-04T01:16:15;5.90;1.00
11944;DHT22;6031;50.220;10.122;2023-02-04T01:18:40;5.90;1.00
11944;DHT22;6031;50.220;10.122;2023-02-04T01:21:06;6.00;1.00
11944;DHT22;6031;50.220;10.122;2023-02-04T01:23:31;5.90;1.00
11944;DHT22;6031;50.220;10.122;2023-02-04T01:25:57;5.90;1.00
11944;DHT22;6031;50.220;10.122;2023-02-04T01:28:23;5.90;1.00
11944;DHT22;6031;50.220;10.122;2023-02-04T01:30:48;5.90;1.00
11944;DHT22;6031;50.220;10.122;2023-02-04T01:33:14;5.90;1.00
11944;DHT22;6031;50.220;10.122;2023-02-04T01:35:39;5.90;1.00
11944;DHT22;6031;50.220;10.122;2023-02-04T01:38:04;5.90;1.00
11944;DHT22;6031;50.220;10.122;2023-02-04T01:40:30;5.90;1.00
11944;DHT22;6031;50.220;10.122;2023-02-04T01:42:56;5.80;1.00
11944;DHT22;6031;50.220;10.122;2023-02-04T01:45:21;5.90;1.00
11944;DHT22;6031;50.220;10.122;2023-02-04T01:47:47;5.80;1.00
11944;DHT22;6031;50.220;10.122;2023-02-04T01:50:14;5.90;1.00
11944;DHT22;6031;50.220;10.122;2023-02-04T01:52:40;5.80;1.00
11944;DHT22;6031;50.220;10.122;2023-02-04T01:55:15;5.80;1.00
11944;DHT22;6031;50.220;10.122;2023-02-04T01:57:41;5.70;1.00
11944;DHT22;6031;50.220;10.122;2023-02-04T02:00:28;5.70;1.00
11944;DHT22;6031;50.220;10.122;2023-02-04T02:02:54;5.50;1.00
11944;DHT22;6031;50.220;10.122;2023-02-04T02:05:26;5.40;1.00
11944;DHT22;6031;50.220;10.122;2023-02-04T02:07:54;5.30;99.70
11944;DHT22;6031;50.220;10.122;2023-02-04T02:10:22;5.30;99.90
11944;DHT22;6031;50.220;10.122;2023-02-04T02:12:48;5.20;99.90
11944;DHT22;6031;50.220;10.122;2023-02-04T02:15:15;5.20;99.90
11944;DHT22;6031;50.220;10.122;2023-02-04T02:17:41;5.20;1.00
11944;DHT22;6031;50.220;10.122;2023-02-04T02:20:11;5.30;1.00
11944;DHT22;6031;50.220;10.122;2023-02-04T02:22:48;5.30;1.00
11944;DHT22;6031;50.220;10.122;2023-02-04T02:25:16;5.30;1.00
11944;DHT22;6031;50.220;10.122;2023-02-04T02:27:42;5.20;1.00
11944;DHT22;6031;50.220;10.122;2023-02-04T02:30:09;5.30;1.00
11944;DHT22;6031;50.220;10.122;2023-02-04T02:32:36;5.20;1.00
11944;DHT22;6031;50.220;10.122;2023-02-04T02:35:02;5.20;99.90
11944;DHT22;6031;50.220;10.122;2023-02-04T02:37:28;5.20;99.90
11944;DHT22;6031;50.220;10.122;2023-02-04T02:39:54;5.30;33.70
11944;DHT22;6031;50.220;10.122;2023-02-04T02:42:20;5.30;99.90
11944;DHT22;6031;50.220;10.122;2023-02-04T02:44:46;5.30;99.90
11944;DHT22;6031;50.220;10.122;2023-02-04T02:47:17;5.20;99.90
11944;DHT22;6031;50.220;10.122;2023-02-04T02:49:49;5.10;99.90
11944;DHT22;6031;50.220;10.122;2023-02-04T02:52:15;5.20;99.90
11944;DHT22;6031;50.220;10.122;2023-02-04T02:54:41;5.20;37.70
11944;DHT22;6031;50.220;10.122;2023-02-04T02:57:13;5.10;99.90
11944;DHT22;6031;50.220;10.122;2023-02-04T02:59:39;5.10;99.90
11944;DHT22;6031;50.220;10.122;2023-02-04T03:02:05;5.10;99.90
11944;DHT22;6031;50.220;10.122;2023-02-04T03:04:36;5.20;99.90
11944;DHT22;6031;50.220;10.122;2023-02-04T03:07:02;5.20;99.90
11944;DHT22;6031;50.220;10.122;2023-02-04T03:09:28;5.10;99.90
11944;DHT22;6031;50.220;10.122;2023-02-04T03:11:54;5.20;1.00
11944;DHT22;6031;50.220;10.122;2023-02-04T03:14:20;5.20;1.00
11944;DHT22;6031;50.220;10.122;2023-02-04T03:16:47;5.20;1.00
11944;DHT22;6031;50.220;10.122;2023-02-04T03:19:12;5.30;98.00
11944;DHT22;6031;50.220;10.122;2023-02-04T03:21:38;5.20;1.00
11944;DHT22;6031;50.220;10.122;2023-02-04T03:24:04;5.20;1.00
11944;DHT22;6031;50.220;10.122;2023-02-04T03:26:30;5.10;1.00
11944;DHT22;6031;50.220;10.122;2023-02-04T03:28:56;5.00;99.90
11944;DHT22;6031;50.220;10.122;2023-02-04T03:31:21;4.80;99.90
11944;DHT22;6031;50.220;10.122;2023-02-04T03:33:47;4.80;1.00
11944;DHT22;6031;50.220;10.122;2023-02-04T03:36:12;4.60;1.00
11944;DHT22;6031;50.220;10.122;2023-02-04T03:38:38;4.50;1.00
11944;DHT22;6031;50.220;10.122;2023-02-04T03:41:04;4.50;62.50
11944;DHT22;6031;50.220;10.122;2023-02-04T03:43:29;4.40;1.00
11944;DHT22;6031;50.220;10.122;2023-02-04T03:45:55;4.50;99.90
11944;DHT22;6031;50.220;10.122;2023-02-04T03:48:20;4.40;99.90
11944;DHT22;6031;50.220;10.122;2023-02-04T03:50:46;4.30;99.90
11944;DHT22;6031;50.220;10.122;2023-02-04T03:53:11;4.20;99.90
11944;DHT22;6031;50.220;10.122;2023-02-04T03:55:37;4.10;1.00
11944;DHT22;6031;50.220;10.122;2023-02-04T03:58:03;3.90;1.00
11944;DHT22;6031;50.220;10.122;2023-02-04T04:00:29;4.00;36.00
11944;DHT22;6031;50.220;10.122;2023-02-04T04:02:56;3.80;1.00
11944;DHT22;6031;50.220;10.122;2023-02-04T04:05:22;3.60;1.00
11944;DHT22;6031;50.220;10.122;2023-02-04T04:07:48;3.30;99.90
11944;DHT22;6031;50.220;10.122;2023-02-04T04:10:13;3.40;1.00
11944;DHT22;6031;50.220;10.122;2023-02-04T04:12:39;3.40;99.90
11944;DHT22;6031;50.220;10.122;2023-02-04T04:15:05;3.50;99.90
11944;DHT22;6031;50.220;10.122;2023-02-04T04:17:30;3.60;1.00
11944;DHT22;6031;50.220;10.122;2023-02-04T04:19:56;3.70;1.00
11944;DHT22;6031;50.220;10.122;2023-02-04T04:22:21;3.80;1.00
11944;DHT22;6031;50.220;10.122;2023-02-04T04:24:47;3.70;1.00
11944;DHT22;6031;50.220;10.122;2023-02-04T04:27:12;3.70;1.00
11944;DHT22;6031;50.220;10.122;2023-02-04T04:29:38;3.80;1.00
11944;DHT22;6031;50.220;10.122;2023-02-04T04:32:03;3.60;99.90
11944;DHT22;6031;50.220;10.122;2023-02-04T04:34:30;3.40;99.90
11944;DHT22;6031;50.220;10.122;2023-02-04T04:36:55;3.40;1.00
11944;DHT22;6031;50.220;10.122;2023-02-04T04:39:21;3.40;99.90
11944;DHT22;6031;50.220;10.122;2023-02-04T04:41:46;3.30;1.00
11944;DHT22;6031;50.220;10.122;2023-02-04T04:44:12;3.30;1.00
11944;DHT22;6031;50.220;10.122;2023-02-04T04:46:37;3.30;1.00
11944;DHT22;6031;50.220;10.122;2023-02-04T04:49:05;3.20;1.00
11944;DHT22;6031;50.220;10.122;2023-02-04T04:51:31;3.20;1.00
11944;DHT22;6031;50.220;10.122;2023-02-04T04:53:57;3.30;99.90
11944;DHT22;6031;50.220;10.122;2023-02-04T04:56:23;3.20;99.90
11944;DHT22;6031;50.220;10.122;2023-02-04T04:58:48;3.20;1.00
11944;DHT22;6031;50.220;10.122;2023-02-04T05:01:13;3.20;99.90
11944;DHT22;6031;50.220;10.122;2023-02-04T05:03:39;3.30;1.00
11944;DHT22;6031;50.220;10.122;2023-02-04T05:06:04;3.60;1.00
11944;DHT22;6031;50.220;10.122;2023-02-04T05:08:30;3.80;99.90
11944;DHT22;6031;50.220;10.122;2023-02-04T05:10:55;4.00;99.90
11944;DHT22;6031;50.220;10.122;2023-02-04T05:13:21;4.10;1.00
11944;DHT22;6031;50.220;10.122;2023-02-04T05:15:49;4.20;1.00
11944;DHT22;6031;50.220;10.122;2023-02-04T05:18:15;4.10;1.00
11944;DHT22;6031;50.220;10.122;2023-02-04T05:20:40;4.00;99.90
11944;DHT22;6031;50.220;10.122;2023-02-04T05:23:06;4.10;99.90
11944;DHT22;6031;50.220;10.122;2023-02-04T05:25:31;4.10;99.90
11944;DHT22;6031;50.220;10.122;2023-02-04T05:27:57;4.10;99.90
11944;DHT22;6031;50.220;10.122;2023-02-04T05:30:22;4.10;1.00
11944;DHT22;6031;50.220;10.122;2023-02-04T05:32:48;4.00;1.00
11944;DHT22;6031;50.220;10.122;2023-02-04T05:35:13;3.90;1.00
11944;DHT22;6031;50.220;10.122;2023-02-04T05:37:39;3.80;1.00
11944;DHT22;6031;50.220;10.122;2023-02-04T05:40:04;3.70;1.00
11944;DHT22;6031;50.220;10.122;2023-02-04T05:42:30;3.60;1.00
11944;DHT22;6031;50.220;10.122;2023-02-04T05:44:56;3.70;1.00
11944;DHT22;6031;50.220;10.122;2023-02-04T05:47:21;3.50;1.00
11944;DHT22;6031;50.220;10.122;2023-02-04T05:49:47;3.40;1.00
11944;DHT22;6031;50.220;10.122;2023-02-04T05:52:12;3.20;1.00
11944;DHT22;6031;50.220;10.122;2023-02-04T05:54:38;3.20;40.60
11944;DHT22;6031;50.220;10.122;2023-02-04T05:57:03;3.10;99.90
11944;DHT22;6031;50.220;10.122;2023-02-04T05:59:29;3.00;99.90
11944;DHT22;6031;50.220;10.122;2023-02-04T06:01:54;3.10;99.90
11944;DHT22;6031;50.220;10.122;2023-02-04T06:04:20;3.00;99.90
11944;DHT22;6031;50.220;10.122;2023-02-04T06:06:45;2.90;99.90
11944;DHT22;6031;50.220;10.122;2023-02-04T06:09:11;2.60;99.90
11944;DHT22;6031;50.220;10.122;2023-02-04T06:11:37;2.50;99.90
11944;DHT22;6031;50.220;10.122;2023-02-04T06:14:03;2.40;99.90
11944;DHT22;6031;50.220;10.122;2023-02-04T06:16:28;2.20;99.90
11944;DHT22;6031;50.220;10.122;2023-02-04T06:18:54;2.10;99.90
11944;DHT22;6031;50.220;10.122;2023-02-04T06:21:19;2.00;99.90
11944;DHT22;6031;50.220;10.122;2023-02-04T06:23:45;2.00;99.90
11944;DHT22;6031;50.220;10.122;2023-02-04T06:26:10;2.00;99.90
11944;DHT22;6031;50.220;10.122;2023-02-04T06:28:36;2.20;99.90
11944;DHT22;6031;50.220;10.122;2023-02-04T06:31:02;2.20;99.90
11944;DHT22;6031;50.220;10.122;2023-02-04T06:33:28;2.10;99.90
11944;DHT22;6031;50.220;10.122;2023-02-04T06:35:53;2.20;99.90
11944;DHT22;6031;50.220;10.122;2023-02-04T06:38:19;2.10;99.90
11944;DHT22;6031;50.220;10.122;2023-02-04T06:40:44;2.20;99.90
11944;DHT22;6031;50.220;10.122;2023-02-04T06:43:16;2.30;99.90
11944;DHT22;6031;50.220;10.122;2023-02-04T06:45:41;2.50;99.90
11944;DHT22;6031;50.220;10.122;2023-02-04T06:48:07;2.80;99.90
11944;DHT22;6031;50.220;10.122;2023-02-04T06:50:33;2.90;99.90
11944;DHT22;6031;50.220;10.122;2023-02-04T06:52:58;3.00;99.90
11944;DHT22;6031;50.220;10.122;2023-02-04T06:55:24;2.90;99.90
11944;DHT22;6031;50.220;10.122;2023-02-04T06:57:49;3.00;99.90
11944;DHT22;6031;50.220;10.122;2023-02-04T07:00:15;2.90;99.90
11944;DHT22;6031;50.220;10.122;2023-02-04T07:02:40;2.80;99.90
11944;DHT22;6031;50.220;10.122;2023-02-04T07:05:07;2.80;99.90
11944;DHT22;6031;50.220;10.122;2023-02-04T07:07:33;2.80;1.00
11944;DHT22;6031;50.220;10.122;2023-02-04T07:09:58;2.80;1.00
11944;DHT22;6031;50.220;10.122;2023-02-04T07:12:24;2.70;1.00
11944;DHT22;6031;50.220;10.122;2023-02-04T07:14:49;2.70;1.00
11944;DHT22;6031;50.220;10.122;2023-02-04T07:17:15;2.80;1.00
11944;DHT22;6031;50.220;10.122;2023-02-04T07:19:40;2.80;1.00
11944;DHT22;6031;50.220;10.122;2023-02-04T07:22:06;2.70;99.90
11944;DHT22;6031;50.220;10.122;2023-02-04T07:24:31;2.70;1.00
11944;DHT22;6031;50.220;10.122;2023-02-04T07:26:57;2.70;1.00
11944;DHT22;6031;50.220;10.122;2023-02-04T07:29:22;2.90;1.00
11944;DHT22;6031;50.220;10.122;2023-02-04T07:31:48;2.80;1.00
11944;DHT22;6031;50.220;10.122;2023-02-04T07:34:16;2.90;1.00
11944;DHT22;6031;50.220;10.122;2023-02-04T07:36:42;2.90;1.00
11944;DHT22;6031;50.220;10.122;2023-02-04T07:39:07;3.00;99.90
11944;DHT22;6031;50.220;10.122;2023-02-04T07:41:33;3.10;1.00
11944;DHT22;6031;50.220;10.122;2023-02-04T07:43:59;3.30;1.00
11944;DHT22;6031;50.220;10.122;2023-02-04T07:46:24;3.30;99.90
11944;DHT22;6031;50.220;10.122;2023-02-04T07:48:50;3.40;2.60
11944;DHT22;6031;50.220;10.122;2023-02-04T07:51:16;3.40;1.00
11944;DHT22;6031;50.220;10.122;2023-02-04T07:53:41;3.50;99.90
11944;DHT22;6031;50.220;10.122;2023-02-04T07:56:07;3.50;99.90
11944;DHT22;6031;50.220;10.122;2023-02-04T07:58:32;3.60;99.90
11944;DHT22;6031;50.220;10.122;2023-02-04T08:00:58;3.70;1.00
11944;DHT22;6031;50.220;10.122;2023-02-04T08:03:23;3.70;1.00
11944;DHT22;6031;50.220;10.122;2023-02-04T08:05:49;3.60;1.00
11944;DHT22;6031;50.220;10.122;2023-02-04T08:08:14;3.50;99.90
11944;DHT22;6031;50.220;10.122;2023-02-04T08:10:40;3.30;1.00
11944;DHT22;6031;50.220;10.122;2023-02-04T08:13:06;3.30;14.70
11944;DHT22;6031;50.220;10.122;2023-02-04T08:15:31;3.30;99.90
11944;DHT22;6031;50.220;10.122;2023-02-04T08:17:57;3.30;1.00
11944;DHT22;6031;50.220;10.122;2023-02-04T08:20:23;3.40;30.70
11944;DHT22;6031;50.220;10.122;2023-02-04T08:22:48;3.40;1.00
11944;DHT22;6031;50.220;10.122;2023-02-04T08:25:14;3.40;1.00
11944;DHT22;6031;50.220;10.122;2023-02-04T08:27:39;3.50;1.00
11944;DHT22;6031;50.220;10.122;2023-02-04T08:30:05;3.50;99.90
11944;DHT22;6031;50.220;10.122;2023-02-04T08:32:31;3.60;1.00
11944;DHT22;6031;50.220;10.122;2023-02-04T08:34:57;3.70;74.10
11944;DHT22;6031;50.220;10.122;2023-02-04T08:37:23;3.90;1.00
11944;DHT22;6031;50.220;10.122;2023-02-04T08:39:49;4.00;1.00
11944;DHT22;6031;50.220;10.122;2023-02-04T08:42:15;4.10;99.90
11944;DHT22;6031;50.220;10.122;2023-02-04T08:44:41;4.20;1.00
11944;DHT22;6031;50.220;10.122;2023-02-04T08:47:07;4.40;1.00
11944;DHT22;6031;50.220;10.122;2023-02-04T08:49:32;4.70;99.90
11944;DHT22;6031;50.220;10.122;2023-02-04T08:51:58;5.10;1.00
11944;DHT22;6031;50.220;10.122;2023-02-04T08:54:23;5.50;1.00
11944;DHT22;6031;50.220;10.122;2023-02-04T08:56:50;5.50;1.00
11944;DHT22;6031;50.220;10.122;2023-02-04T08:59:16;5.30;1.00
11944;DHT22;6031;50.220;10.122;2023-02-04T09:01:41;5.40;1.00
11944;DHT22;6031;50.220;10.122;2023-02-04T09:04:07;5.40;99.90
11944;DHT22;6031;50.220;10.122;2023-02-04T09:06:33;5.30;1.00
11944;DHT22;6031;50.220;10.122;2023-02-04T09:08:58;5.60;99.90
11944;DHT22;6031;50.220;10.122;2023-02-04T09:11:24;6.00;1.00
11944;DHT22;6031;50.220;10.122;2023-02-04T09:13:50;6.10;99.90
11944;DHT22;6031;50.220;10.122;2023-02-04T09:16:15;6.00;1.00
11944;DHT22;6031;50.220;10.122;2023-02-04T09:18:42;6.10;1.00
11944;DHT22;6031;50.220;10.122;2023-02-04T09:21:08;6.10;1.00
11944;DHT22;6031;50.220;10.122;2023-02-04T09:23:34;5.80;99.90
11944;DHT22;6031;50.220;10.122;2023-02-04T09:25:59;5.50;1.00
11944;DHT22;6031;50.220;10.122;2023-02-04T09:28:25;5.40;1.00
11944;DHT22;6031;50.220;10.122;2023-02-04T09:30:51;5.50;1.00
11944;DHT22;6031;50.220;10.122;2023-02-04T09:33:17;5.70;1.00
11944;DHT22;6031;50.220;10.122;2023-02-04T09:35:42;5.90;1.00
11944;DHT22;6031;50.220;10.122;2023-02-04T09:38:08;5.80;1.00
11944;DHT22;6031;50.220;10.122;2023-02-04T09:40:37;5.90;1.00
11944;DHT22;6031;50.220;10.122;2023-02-04T09:43:05;6.10;51.60
11944;DHT22;6031;50.220;10.122;2023-02-04T09:45:35;6.20;1.00
11944;DHT22;6031;50.220;10.122;2023-02-04T09:48:05;6.20;99.90
11944;DHT22;6031;50.220;10.122;2023-02-04T09:50:31;6.10;97.50
11944;DHT22;6031;50.220;10.122;2023-02-04T09:53:00;6.10;99.90
11944;DHT22;6031;50.220;10.122;2023-02-04T09:55:36;6.10;99.90
11944;DHT22;6031;50.220;10.122;2023-02-04T09:58:04;6.40;99.90
11944;DHT22;6031;50.220;10.122;2023-02-04T10:00:30;6.40;1.00
11944;DHT22;6031;50.220;10.122;2023-02-04T10:02:59;6.00;99.90
11944;DHT22;6031;50.220;10.122;2023-02-04T10:05:29;6.50;99.90
11944;DHT22;6031;50.220;10.122;2023-02-04T10:07:55;7.00;1.00
11944;DHT22;6031;50.220;10.122;2023-02-04T10:10:23;7.50;1.00
11944;DHT22;6031;50.220;10.122;2023-02-04T10:12:56;7.80;99.90
11944;DHT22;6031;50.220;10.122;2023-02-04T10:15:22;7.80;99.90
11944;DHT22;6031;50.220;10.122;2023-02-04T10:17:50;7.50;99.90
11944;DHT22;6031;50.220;10.122;2023-02-04T10:20:18;7.10;96.40
11944;DHT22;6031;50.220;10.122;2023-02-04T10:22:45;6.80;8.80
11944;DHT22;6031;50.220;10.122;2023-02-04T10:25:17;6.80;25.80
11944;DHT22;6031;50.220;10.122;2023-02-04T10:27:51;6.80;1.00
11944;DHT22;6031;50.220;10.122;2023-02-04T10:30:22;6.80;57.80
11944;DHT22;6031;50.220;10.122;2023-02-04T10:32:48;6.60;41.70
11944;DHT22;6031;50.220;10.122;2023-02-04T10:35:16;6.50;72.00
11944;DHT22;6031;50.220;10.122;2023-02-04T10:37:41;6.50;99.90
11944;DHT22;6031;50.220;10.122;2023-02-04T10:40:31;6.40;99.90
11944;DHT22;6031;50.220;10.122;2023-02-04T10:42:57;6.40;99.90
11944;DHT22;6031;50.220;10.122;2023-02-04T10:45:25;6.20;99.90
11944;DHT22;6031;50.220;10.122;2023-02-04T10:47:52;6.10;99.90
11944;DHT22;6031;50.220;10.122;2023-02-04T10:50:20;6.00;99.90
11944;DHT22;6031;50.220;10.122;2023-02-04T10:52:50;5.90;99.90
11944;DHT22;6031;50.220;10.122;2023-02-04T10:55:18;5.80;1.00
11944;DHT22;6031;50.220;10.122;2023-02-04T10:57:46;5.80;99.90
11944;DHT22;6031;50.220;10.122;2023-02-04T11:00:21;5.80;99.90
11944;DHT22;6031;50.220;10.122;2023-02-04T11:03:01;5.70;99.90
11944;DHT22;6031;50.220;10.122;2023-02-04T11:05:32;5.60;1.00
11944;DHT22;6031;50.220;10.122;2023-02-04T11:07:59;5.40;1.00
11944;DHT22;6031;50.220;10.122;2023-02-04T11:10:33;5.40;1.00
11944;DHT22;6031;50.220;10.122;2023-02-04T11:13:01;5.40;1.00
11944;DHT22;6031;50.220;10.122;2023-02-04T11:15:47;5.50;1.00
11944;DHT22;6031;50.220;10.122;2023-02-04T11:20:49;5.40;99.90
11944;DHT22;6031;50.220;10.122;2023-02-04T11:23:35;5.20;1.00
11944;DHT22;6031;50.220;10.122;2023-02-04T11:28:26;5.00;1.00
11944;DHT22;6031;50.220;10.122;2023-02-04T11:31:02;4.90;1.00
11944;DHT22;6031;50.220;10.122;2023-02-04T11:33:39;5.00;1.00
11944;DHT22;6031;50.220;10.122;2023-02-04T11:36:08;4.90;1.00
11944;DHT22;6031;50.220;10.122;2023-02-04T11:38:34;4.90;1.00
11944;DHT22;6031;50.220;10.122;2023-02-04T11:41:00;5.00;1.00
11944;DHT22;6031;50.220;10.122;2023-02-04T11:43:26;5.00;1.00
11944;DHT22;6031;50.220;10.122;2023-02-04T11:46:14;4.90;1.00
11944;DHT22;6031;50.220;10.122;2023-02-04T11:48:40;4.90;1.00
11944;DHT22;6031;50.220;10.122;2023-02-04T11:51:31;5.10;1.00
11944;DHT22;6031;50.220;10.122;2023-02-04T11:53:57;5.10;99.90
11944;DHT22;6031;50.220;10.122;2023-02-04T11:56:27;5.20;99.90
11944;DHT22;6031;50.220;10.122;2023-02-04T11:58:56;5.30;99.90
11944;DHT22;6031;50.220;10.122;2023-02-04T12:01:23;5.60;99.90
11944;DHT22;6031;50.220;10.122;2023-02-04T12:03:56;5.60;99.90
11944;DHT22;6031;50.220;10.122;2023-02-04T12:06:30;5.60;99.90
11944;DHT22;6031;50.220;10.122;2023-02-04T12:09:23;5.70;99.90
11944;DHT22;6031;50.220;10.122;2023-02-04T12:11:54;5.70;99.90
11944;DHT22;6031;50.220;10.122;2023-02-04T12:14:20;5.60;99.90
11944;DHT22;6031;50.220;10.122;2023-02-04T12:16:47;6.00;99.90
11944;DHT22;6031;50.220;10.122;2023-02-04T12:19:13;7.10;1.00
11944;DHT22;6031;50.220;10.122;2023-02-04T12:21:39;7.40;99.90
11944;DHT22;6031;50.220;10.122;2023-02-04T12:24:05;7.30;99.90
11944;DHT22;6031;50.220;10.122;2023-02-04T12:26:30;7.00;99.90
11944;DHT22;6031;50.220;10.122;2023-02-04T12:28:56;6.90;99.90
11944;DHT22;6031;50.220;10.122;2023-02-04T12:31:24;6.80;99.90
11944;DHT22;6031;50.220;10.122;2023-02-04T12:33:49;6.90;1.00
11944;DHT22;6031;50.220;10.122;2023-02-04T12:36:15;6.80;99.90
11944;DHT22;6031;50.220;10.122;2023-02-04T12:38:40;6.90;99.90
11944;DHT22;6031;50.220;10.122;2023-02-04T12:41:06;6.90;99.90
11944;DHT22;6031;50.220;10.122;2023-02-04T12:43:31;6.70;99.90
11944;DHT22;6031;50.220;10.122;2023-02-04T12:45:57;6.80;99.90
11944;DHT22;6031;50.220;10.122;2023-02-04T12:48:22;7.00;99.90
11944;DHT22;6031;50.220;10.122;2023-02-04T12:50:48;7.00;99.90
11944;DHT22;6031;50.220;10.122;2023-02-04T12:53:13;7.10;99.90
11944;DHT22;6031;50.220;10.122;2023-02-04T12:55:39;6.60;99.90
11944;DHT22;6031;50.220;10.122;2023-02-04T12:58:04;6.70;99.90
11944;DHT22;6031;50.220;10.122;2023-02-04T13:00:30;6.80;99.90
11944;DHT22;6031;50.220;10.122;2023-02-04T13:02:55;7.10;99.90
11944;DHT22;6031;50.220;10.122;2023-02-04T13:05:23;7.20;99.90
11944;DHT22;6031;50.220;10.122;2023-02-04T13:07:49;7.50;99.90
11944;DHT22;6031;50.220;10.122;2023-02-04T13:10:15;7.60;99.90
11944;DHT22;6031;50.220;10.122;2023-02-04T13:12:41;7.60;99.90
11944;DHT22;6031;50.220;10.122;2023-02-04T13:15:07;7.70;97.40
11944;DHT22;6031;50.220;10.122;2023-02-04T13:17:33;7.20;99.90
11944;DHT22;6031;50.220;10.122;2023-02-04T13:19:58;7.10;99.90
11944;DHT22;6031;50.220;10.122;2023-02-04T13:22:25;6.90;99.90
11944;DHT22;6031;50.220;10.122;2023-02-04T13:24:50;7.00;99.90
11944;DHT22;6031;50.220;10.122;2023-02-04T13:27:16;7.00;99.90
11944;DHT22;6031;50.220;10.122;2023-02-04T13:29:41;6.80;99.00
11944;DHT22;6031;50.220;10.122;2023-02-04T13:32:07;6.70;42.40
11944;DHT22;6031;50.220;10.122;2023-02-04T13:34:33;6.70;99.90
11944;DHT22;6031;50.220;10.122;2023-02-04T13:37:00;6.60;93.80
11944;DHT22;6031;50.220;10.122;2023-02-04T13:39:26;6.60;99.90
11944;DHT22;6031;50.220;10.122;2023-02-04T13:41:51;6.60;99.90
11944;DHT22;6031;50.220;10.122;2023-02-04T13:44:16;6.40;99.90
11944;DHT22;6031;50.220;10.122;2023-02-04T13:46:42;6.30;99.90
11944;DHT22;6031;50.220;10.122;2023-02-04T13:49:07;6.40;99.90
11944;DHT22;6031;50.220;10.122;2023-02-04T13:51:33;6.50;99.90
11944;DHT22;6031;50.220;10.122;2023-02-04T13:53:59;6.80;99.90
11944;DHT22;6031;50.220;10.122;2023-02-04T13:56:27;7.00;99.90
11944;DHT22;6031;50.220;10.122;2023-02-04T13:58:53;6.80;58.10
11944;DHT22;6031;50.220;10.122;2023-02-04T14:01:19;6.60;96.50
11944;DHT22;6031;50.220;10.122;2023-02-04T14:03:44;6.60;99.90
11944;DHT22;6031;50.220;10.122;2023-02-04T14:06:11;6.50;99.90
11944;DHT22;6031;50.220;10.122;2023-02-04T14:08:37;6.40;99.90
11944;DHT22;6031;50.220;10.122;2023-02-04T14:11:03;6.40;52.70
11944;DHT22;6031;50.220;10.122;2023-02-04T14:13:29;6.40;99.90
11944;DHT22;6031;50.220;10.122;2023-02-04T14:15:55;6.50;99.90
11944;DHT22;6031;50.220;10.122;2023-02-04T14:18:20;6.70;99.90
11944;DHT22;6031;50.220;10.122;2023-02-04T14:20:46;6.70;99.90
11944;DHT22;6031;50.220;10.122;2023-02-04T14:23:11;6.70;93.40
11944;DHT22;6031;50.220;10.122;2023-02-04T14:25:37;6.60;85.10
11944;DHT22;6031;50.220;10.122;2023-02-04T14:28:03;6.60;99.90
11944;DHT22;6031;50.220;10.122;2023-02-04T14:30:30;6.30;99.90
11944;DHT22;6031;50.220;10.122;2023-02-04T14:32:56;6.40;99.90
11944;DHT22;6031;50.220;10.122;2023-02-04T14:35:23;6.30;99.90
11944;DHT22;6031;50.220;10.122;2023-02-04T14:37:49;6.40;99.90
11944;DHT22;6031;50.220;10.122;2023-02-04T14:40:15;6.00;99.90
11944;DHT22;6031;50.220;10.122;2023-02-04T14:42:41;6.00;99.90
11944;DHT22;6031;50.220;10.122;2023-02-04T14:45:08;6.00;99.90
11944;DHT22;6031;50.220;10.122;2023-02-04T14:47:35;5.90;99.90
11944;DHT22;6031;50.220;10.122;2023-02-04T14:50:01;5.80;99.90
11944;DHT22;6031;50.220;10.122;2023-02-04T14:52:26;5.70;99.90
11944;DHT22;6031;50.220;10.122;2023-02-04T14:54:52;5.40;99.90
11944;DHT22;6031;50.220;10.122;2023-02-04T14:57:18;5.20;99.90
11944;DHT22;6031;50.220;10.122;2023-02-04T14:59:43;5.10;1.00
11944;DHT22;6031;50.220;10.122;2023-02-04T15:02:09;5.10;1.00
11944;DHT22;6031;50.220;10.122;2023-02-04T15:04:35;5.00;1.00
11944;DHT22;6031;50.220;10.122;2023-02-04T15:07:01;5.00;1.00
11944;DHT22;6031;50.220;10.122;2023-02-04T15:09:27;5.00;1.00
11944;DHT22;6031;50.220;10.122;2023-02-04T15:11:53;5.00;1.00
11944;DHT22;6031;50.220;10.122;2023-02-04T15:14:19;4.90;1.00
11944;DHT22;6031;50.220;10.122;2023-02-04T15:16:45;4.90;1.00
11944;DHT22;6031;50.220;10.122;2023-02-04T15:19:13;4.90;1.00
11944;DHT22;6031;50.220;10.122;2023-02-04T15:21:39;4.90;1.00
11944;DHT22;6031;50.220;10.122;2023-02-04T15:24:04;4.80;1.00
11944;DHT22;6031;50.220;10.122;2023-02-04T15:26:30;4.70;1.00
11944;DHT22;6031;50.220;10.122;2023-02-04T15:28:55;4.50;1.00
11944;DHT22;6031;50.220;10.122;2023-02-04T15:31:22;4.50;1.00
11944;DHT22;6031;50.220;10.122;2023-02-04T15:33:48;4.40;1.00
11944;DHT22;6031;50.220;10.122;2023-02-04T15:36:13;4.40;1.00
11944;DHT22;6031;50.220;10.122;2023-02-04T15:38:39;4.50;1.00
11944;DHT22;6031;50.220;10.122;2023-02-04T15:41:04;4.50;1.00
11944;DHT22;6031;50.220;10.122;2023-02-04T15:43:30;4.40;1.00
11944;DHT22;6031;50.220;10.122;2023-02-04T15:45:56;4.30;1.00
11944;DHT22;6031;50.220;10.122;2023-02-04T15:48:21;4.20;1.00
11944;DHT22;6031;50.220;10.122;2023-02-04T15:50:48;4.10;1.00
11944;DHT22;6031;50.220;10.122;2023-02-04T15:53:14;4.20;1.00